Aeroporto :
LOGIN :

Iscrizione | Disclaimer

   EN    FR    IT 

 










Sommario :    VFR   VFR Marginale   IFR   IFR Intensivo   IFR Molto Intensivo
Visibilità : 
Base nubi : 
>= 8 km
>= 3000ft
5 / 8 km
1000 / 3000 ft
1500m / 5 km
500 / 1000 ft
800 / 1500m
200 / 500 ft
< 800m
< 200 ft
Simboli :   Temporali  Nebbia  Neve Forte  Precipitazioni Forti  Vento > 20 kt
SIGMETs :   Varie  Temporali  Ghiacco  Turbolenza  Onda orograficha  Ceneri Vulcaniche






- Altitudine del aeroporto : 2026 ft
- Codice IATA : TOJ


LETO - Madrid Torrejon

ULTIMO METAR :
  • 301000Z 05020KT 9999 BKN065 07/M01 Q1014 NOSIG

METARs OBSOLETI :
  • 300900Z 06018KT 9999 SCT065 06/M01 Q1015 NOSIG
  • 300800Z 05018KT 9999 BKN050 06/M01 Q1014 NOSIG

TAF TAF LETO
Valido dal 30 a 06 ore il 31 a 06 ore UTC


300500Z 3006/3106 06012KT CAVOK TX09/3016Z TN01/3104Z
PROB30
TEMPO 3006/3012 RA BKN014
PROB40
TEMPO 3011/3018 02015G25KT
BECMG 3022/3024 RA
PROB30 3022/3024 RA RASN
PROB40 3100/3106 3000 SN BKN008



MetMap, La meteo Aeronautica in un colpo d'occhio ! - Copyright ORBIFLY Dicembre 2007 - Disclaimer

ORBIFLY MET'MAP TEAM :

Programmazione e sviluppo : Alexandra Zaïnal
Concezione : Baudouin d'Aumeries
Aiuto per la programmazione : Marc-Olivier Méhu
Supporto tecnico e logistico : Manuel Goepfert
Aiuto per la traduzione : Arnaldo La Scala

Contatto : metmap@orbifly.com




FONTI E CREDITI :

   NOAA